sensor_id;sensor_type;location;lat;lon;timestamp;P1;durP1;ratioP1;P2;durP2;ratioP2
38312;SDS011;24114;52.260;6.714;2022-08-01T00:00:50;9.52;;;7.47;;
38312;SDS011;24114;52.260;6.714;2022-08-01T00:03:18;10.43;;;8.00;;
38312;SDS011;24114;52.260;6.714;2022-08-01T00:05:45;8.95;;;7.30;;
38312;SDS011;24114;52.260;6.714;2022-08-01T00:08:14;10.20;;;7.72;;
38312;SDS011;24114;52.260;6.714;2022-08-01T00:10:42;8.98;;;7.32;;
38312;SDS011;24114;52.260;6.714;2022-08-01T00:13:10;8.82;;;7.68;;
38312;SDS011;24114;52.260;6.714;2022-08-01T00:15:38;9.40;;;7.65;;
38312;SDS011;24114;52.260;6.714;2022-08-01T00:18:07;9.18;;;7.00;;
38312;SDS011;24114;52.260;6.714;2022-08-01T00:20:35;8.90;;;6.90;;
38312;SDS011;24114;52.260;6.714;2022-08-01T00:23:02;6.32;;;5.57;;
38312;SDS011;24114;52.260;6.714;2022-08-01T00:25:31;6.50;;;5.05;;
38312;SDS011;24114;52.260;6.714;2022-08-01T00:28:00;6.32;;;5.25;;
38312;SDS011;24114;52.260;6.714;2022-08-01T00:30:29;6.68;;;4.90;;
38312;SDS011;24114;52.260;6.714;2022-08-01T00:32:57;7.37;;;4.83;;
38312;SDS011;24114;52.260;6.714;2022-08-01T00:35:26;5.65;;;4.95;;
38312;SDS011;24114;52.260;6.714;2022-08-01T00:37:54;5.30;;;4.78;;
38312;SDS011;24114;52.260;6.714;2022-08-01T00:40:22;5.40;;;4.80;;
38312;SDS011;24114;52.260;6.714;2022-08-01T00:42:50;5.90;;;5.30;;
38312;SDS011;24114;52.260;6.714;2022-08-01T00:45:18;5.40;;;4.90;;
38312;SDS011;24114;52.260;6.714;2022-08-01T00:47:45;5.70;;;5.20;;
38312;SDS011;24114;52.260;6.714;2022-08-01T00:50:20;6.53;;;5.43;;
38312;SDS011;24114;52.260;6.714;2022-08-01T00:52:51;5.68;;;4.93;;
38312;SDS011;24114;52.260;6.714;2022-08-01T00:55:19;6.85;;;6.15;;
38312;SDS011;24114;52.260;6.714;2022-08-01T00:57:47;6.40;;;5.60;;
38312;SDS011;24114;52.260;6.714;2022-08-01T01:00:31;6.80;;;5.57;;
38312;SDS011;24114;52.260;6.714;2022-08-01T01:03:18;6.53;;;5.63;;
38312;SDS011;24114;52.260;6.714;2022-08-01T01:06:01;7.85;;;5.78;;
38312;SDS011;24114;52.260;6.714;2022-08-01T01:08:39;6.70;;;6.03;;
38312;SDS011;24114;52.260;6.714;2022-08-01T01:11:10;6.38;;;5.78;;
38312;SDS011;24114;52.260;6.714;2022-08-01T01:13:43;6.10;;;5.43;;
38312;SDS011;24114;52.260;6.714;2022-08-01T01:16:16;6.90;;;6.00;;
38312;SDS011;24114;52.260;6.714;2022-08-01T01:18:46;6.72;;;5.40;;
38312;SDS011;24114;52.260;6.714;2022-08-01T01:21:26;7.07;;;5.65;;
38312;SDS011;24114;52.260;6.714;2022-08-01T01:24:11;5.88;;;5.13;;
38312;SDS011;24114;52.260;6.714;2022-08-01T01:26:45;8.02;;;5.55;;
38312;SDS011;24114;52.260;6.714;2022-08-01T01:29:20;8.57;;;5.88;;
38312;SDS011;24114;52.260;6.714;2022-08-01T01:31:49;7.72;;;6.03;;
38312;SDS011;24114;52.260;6.714;2022-08-01T01:34:22;7.03;;;5.73;;
38312;SDS011;24114;52.260;6.714;2022-08-01T01:36:52;6.30;;;5.27;;
38312;SDS011;24114;52.260;6.714;2022-08-01T01:39:21;7.22;;;5.72;;
38312;SDS011;24114;52.260;6.714;2022-08-01T01:41:51;6.53;;;5.60;;
38312;SDS011;24114;52.260;6.714;2022-08-01T01:44:22;8.13;;;5.47;;
38312;SDS011;24114;52.260;6.714;2022-08-01T01:46:51;6.25;;;5.50;;
38312;SDS011;24114;52.260;6.714;2022-08-01T01:49:19;8.20;;;5.50;;
38312;SDS011;24114;52.260;6.714;2022-08-01T01:51:50;6.75;;;5.43;;
38312;SDS011;24114;52.260;6.714;2022-08-01T01:54:28;6.22;;;4.97;;
38312;SDS011;24114;52.260;6.714;2022-08-01T01:56:58;5.15;;;4.63;;
38312;SDS011;24114;52.260;6.714;2022-08-01T01:59:28;6.78;;;4.65;;
38312;SDS011;24114;52.260;6.714;2022-08-01T02:01:58;6.35;;;4.88;;
38312;SDS011;24114;52.260;6.714;2022-08-01T02:04:32;5.05;;;4.50;;
38312;SDS011;24114;52.260;6.714;2022-08-01T02:07:00;6.40;;;5.05;;
38312;SDS011;24114;52.260;6.714;2022-08-01T02:09:29;5.72;;;4.57;;
38312;SDS011;24114;52.260;6.714;2022-08-01T02:11:58;5.13;;;4.03;;
38312;SDS011;24114;52.260;6.714;2022-08-01T02:14:35;4.50;;;3.90;;
38312;SDS011;24114;52.260;6.714;2022-08-01T02:17:06;6.30;;;4.30;;
38312;SDS011;24114;52.260;6.714;2022-08-01T02:19:33;6.50;;;4.38;;
38312;SDS011;24114;52.260;6.714;2022-08-01T02:22:04;4.00;;;3.60;;
38312;SDS011;24114;52.260;6.714;2022-08-01T02:24:44;4.40;;;4.00;;
38312;SDS011;24114;52.260;6.714;2022-08-01T02:27:17;4.50;;;4.03;;
38312;SDS011;24114;52.260;6.714;2022-08-01T02:29:52;4.88;;;4.20;;
38312;SDS011;24114;52.260;6.714;2022-08-01T02:32:23;4.30;;;3.90;;
38312;SDS011;24114;52.260;6.714;2022-08-01T02:34:53;3.90;;;3.60;;
38312;SDS011;24114;52.260;6.714;2022-08-01T02:37:21;4.38;;;3.97;;
38312;SDS011;24114;52.260;6.714;2022-08-01T02:39:50;3.83;;;3.53;;
38312;SDS011;24114;52.260;6.714;2022-08-01T02:42:18;3.70;;;3.40;;
38312;SDS011;24114;52.260;6.714;2022-08-01T02:44:46;3.45;;;3.10;;
38312;SDS011;24114;52.260;6.714;2022-08-01T02:47:16;3.85;;;3.40;;
38312;SDS011;24114;52.260;6.714;2022-08-01T02:49:46;3.67;;;3.22;;
38312;SDS011;24114;52.260;6.714;2022-08-01T02:52:20;3.47;;;3.17;;
38312;SDS011;24114;52.260;6.714;2022-08-01T02:54:49;3.22;;;2.92;;
38312;SDS011;24114;52.260;6.714;2022-08-01T02:57:18;3.25;;;2.90;;
38312;SDS011;24114;52.260;6.714;2022-08-01T02:59:53;3.20;;;3.00;;
38312;SDS011;24114;52.260;6.714;2022-08-01T03:02:23;3.37;;;3.00;;
38312;SDS011;24114;52.260;6.714;2022-08-01T03:04:51;3.35;;;2.70;;
38312;SDS011;24114;52.260;6.714;2022-08-01T03:07:22;3.23;;;2.93;;
38312;SDS011;24114;52.260;6.714;2022-08-01T03:09:59;3.25;;;3.03;;
38312;SDS011;24114;52.260;6.714;2022-08-01T03:12:29;2.90;;;2.70;;
38312;SDS011;24114;52.260;6.714;2022-08-01T03:15:01;3.15;;;2.85;;
38312;SDS011;24114;52.260;6.714;2022-08-01T03:17:31;3.40;;;2.63;;
38312;SDS011;24114;52.260;6.714;2022-08-01T03:19:59;3.43;;;2.70;;
38312;SDS011;24114;52.260;6.714;2022-08-01T03:22:29;4.07;;;3.00;;
38312;SDS011;24114;52.260;6.714;2022-08-01T03:24:58;2.87;;;2.60;;
38312;SDS011;24114;52.260;6.714;2022-08-01T03:27:26;2.80;;;2.53;;
38312;SDS011;24114;52.260;6.714;2022-08-01T03:29:55;2.47;;;2.28;;
38312;SDS011;24114;52.260;6.714;2022-08-01T03:32:23;2.78;;;2.47;;
38312;SDS011;24114;52.260;6.714;2022-08-01T03:34:54;2.60;;;2.40;;
38312;SDS011;24114;52.260;6.714;2022-08-01T03:37:22;2.30;;;2.15;;
38312;SDS011;24114;52.260;6.714;2022-08-01T03:39:54;2.28;;;2.10;;
38312;SDS011;24114;52.260;6.714;2022-08-01T03:42:24;2.88;;;2.60;;
38312;SDS011;24114;52.260;6.714;2022-08-01T03:44:58;2.45;;;2.25;;
38312;SDS011;24114;52.260;6.714;2022-08-01T03:47:31;3.88;;;2.65;;
38312;SDS011;24114;52.260;6.714;2022-08-01T03:50:11;2.33;;;2.13;;
38312;SDS011;24114;52.260;6.714;2022-08-01T03:52:41;2.63;;;2.42;;
38312;SDS011;24114;52.260;6.714;2022-08-01T03:55:11;3.03;;;2.72;;
38312;SDS011;24114;52.260;6.714;2022-08-01T03:57:39;2.80;;;2.60;;
38312;SDS011;24114;52.260;6.714;2022-08-01T04:00:07;3.78;;;2.70;;
38312;SDS011;24114;52.260;6.714;2022-08-01T04:02:36;3.40;;;2.80;;
38312;SDS011;24114;52.260;6.714;2022-08-01T04:05:04;3.65;;;3.10;;
38312;SDS011;24114;52.260;6.714;2022-08-01T04:07:34;3.20;;;2.70;;
38312;SDS011;24114;52.260;6.714;2022-08-01T04:10:03;3.40;;;3.10;;
38312;SDS011;24114;52.260;6.714;2022-08-01T04:12:31;3.00;;;2.70;;
38312;SDS011;24114;52.260;6.714;2022-08-01T04:14:59;4.13;;;3.22;;
38312;SDS011;24114;52.260;6.714;2022-08-01T04:17:27;3.20;;;3.00;;
38312;SDS011;24114;52.260;6.714;2022-08-01T04:19:55;3.23;;;3.00;;
38312;SDS011;24114;52.260;6.714;2022-08-01T04:22:23;3.53;;;3.20;;
38312;SDS011;24114;52.260;6.714;2022-08-01T04:24:53;4.15;;;3.75;;
38312;SDS011;24114;52.260;6.714;2022-08-01T04:27:23;4.30;;;3.90;;
38312;SDS011;24114;52.260;6.714;2022-08-01T04:30:15;3.85;;;3.50;;
38312;SDS011;24114;52.260;6.714;2022-08-01T04:32:46;4.03;;;3.72;;
38312;SDS011;24114;52.260;6.714;2022-08-01T04:35:15;4.45;;;4.05;;
38312;SDS011;24114;52.260;6.714;2022-08-01T04:38:03;4.85;;;4.45;;
38312;SDS011;24114;52.260;6.714;2022-08-01T04:40:33;4.63;;;4.23;;
38312;SDS011;24114;52.260;6.714;2022-08-01T04:43:03;4.60;;;4.20;;
38312;SDS011;24114;52.260;6.714;2022-08-01T04:45:30;5.15;;;4.47;;
38312;SDS011;24114;52.260;6.714;2022-08-01T04:47:59;5.50;;;5.00;;
38312;SDS011;24114;52.260;6.714;2022-08-01T04:50:27;5.15;;;4.75;;
38312;SDS011;24114;52.260;6.714;2022-08-01T04:52:55;5.00;;;4.60;;
38312;SDS011;24114;52.260;6.714;2022-08-01T04:55:23;5.85;;;5.25;;
38312;SDS011;24114;52.260;6.714;2022-08-01T04:57:52;5.60;;;5.10;;
38312;SDS011;24114;52.260;6.714;2022-08-01T05:00:20;5.20;;;4.70;;
38312;SDS011;24114;52.260;6.714;2022-08-01T05:02:48;4.87;;;4.47;;
38312;SDS011;24114;52.260;6.714;2022-08-01T05:05:16;5.22;;;4.72;;
38312;SDS011;24114;52.260;6.714;2022-08-01T05:07:44;4.97;;;4.57;;
38312;SDS011;24114;52.260;6.714;2022-08-01T05:10:12;4.72;;;4.32;;
38312;SDS011;24114;52.260;6.714;2022-08-01T05:12:41;4.38;;;3.35;;
38312;SDS011;24114;52.260;6.714;2022-08-01T05:15:10;2.45;;;2.25;;
38312;SDS011;24114;52.260;6.714;2022-08-01T05:17:41;2.30;;;2.10;;
38312;SDS011;24114;52.260;6.714;2022-08-01T05:20:10;3.53;;;2.53;;
38312;SDS011;24114;52.260;6.714;2022-08-01T05:22:38;2.80;;;2.55;;
38312;SDS011;24114;52.260;6.714;2022-08-01T05:25:07;2.45;;;2.25;;
38312;SDS011;24114;52.260;6.714;2022-08-01T05:27:37;2.80;;;2.60;;
38312;SDS011;24114;52.260;6.714;2022-08-01T05:30:06;3.10;;;2.90;;
38312;SDS011;24114;52.260;6.714;2022-08-01T05:32:36;3.03;;;2.72;;
38312;SDS011;24114;52.260;6.714;2022-08-01T05:35:04;3.05;;;2.83;;
38312;SDS011;24114;52.260;6.714;2022-08-01T05:37:33;3.10;;;2.80;;
38312;SDS011;24114;52.260;6.714;2022-08-01T05:40:00;3.03;;;2.83;;
38312;SDS011;24114;52.260;6.714;2022-08-01T05:42:29;4.70;;;3.00;;
38312;SDS011;24114;52.260;6.714;2022-08-01T05:44:56;2.90;;;2.70;;
38312;SDS011;24114;52.260;6.714;2022-08-01T05:47:24;3.20;;;3.00;;
38312;SDS011;24114;52.260;6.714;2022-08-01T05:49:53;4.57;;;3.22;;
38312;SDS011;24114;52.260;6.714;2022-08-01T05:52:21;3.40;;;3.20;;
38312;SDS011;24114;52.260;6.714;2022-08-01T05:54:49;4.13;;;3.75;;
38312;SDS011;24114;52.260;6.714;2022-08-01T05:57:16;3.13;;;2.92;;
38312;SDS011;24114;52.260;6.714;2022-08-01T05:59:44;2.47;;;2.28;;
38312;SDS011;24114;52.260;6.714;2022-08-01T06:02:12;4.28;;;2.70;;
38312;SDS011;24114;52.260;6.714;2022-08-01T06:04:39;3.00;;;2.60;;
38312;SDS011;24114;52.260;6.714;2022-08-01T06:07:09;2.60;;;1.88;;
38312;SDS011;24114;52.260;6.714;2022-08-01T06:09:36;1.52;;;1.40;;
38312;SDS011;24114;52.260;6.714;2022-08-01T06:12:04;2.30;;;1.70;;
38312;SDS011;24114;52.260;6.714;2022-08-01T06:14:33;1.50;;;1.40;;
38312;SDS011;24114;52.260;6.714;2022-08-01T06:17:01;3.42;;;2.05;;
38312;SDS011;24114;52.260;6.714;2022-08-01T06:19:28;4.45;;;2.50;;
38312;SDS011;24114;52.260;6.714;2022-08-01T06:21:56;2.53;;;2.03;;
38312;SDS011;24114;52.260;6.714;2022-08-01T06:24:25;2.83;;;2.30;;
38312;SDS011;24114;52.260;6.714;2022-08-01T06:26:53;3.83;;;2.43;;
38312;SDS011;24114;52.260;6.714;2022-08-01T06:29:21;3.28;;;2.20;;
38312;SDS011;24114;52.260;6.714;2022-08-01T06:31:48;2.63;;;2.25;;
38312;SDS011;24114;52.260;6.714;2022-08-01T06:34:16;2.75;;;2.55;;
38312;SDS011;24114;52.260;6.714;2022-08-01T06:36:44;3.55;;;2.80;;
38312;SDS011;24114;52.260;6.714;2022-08-01T06:39:12;4.07;;;3.30;;
38312;SDS011;24114;52.260;6.714;2022-08-01T06:41:41;3.67;;;3.38;;
38312;SDS011;24114;52.260;6.714;2022-08-01T06:44:12;4.15;;;3.83;;
38312;SDS011;24114;52.260;6.714;2022-08-01T06:46:40;4.60;;;3.75;;
38312;SDS011;24114;52.260;6.714;2022-08-01T06:49:08;4.05;;;3.65;;
38312;SDS011;24114;52.260;6.714;2022-08-01T06:51:36;4.05;;;3.30;;
38312;SDS011;24114;52.260;6.714;2022-08-01T06:54:04;3.85;;;3.40;;
38312;SDS011;24114;52.260;6.714;2022-08-01T06:56:32;3.40;;;3.10;;
38312;SDS011;24114;52.260;6.714;2022-08-01T06:59:04;3.10;;;2.80;;
38312;SDS011;24114;52.260;6.714;2022-08-01T07:01:34;2.93;;;2.50;;
38312;SDS011;24114;52.260;6.714;2022-08-01T07:04:03;2.88;;;2.30;;
38312;SDS011;24114;52.260;6.714;2022-08-01T07:06:31;4.80;;;2.20;;
38312;SDS011;24114;52.260;6.714;2022-08-01T07:08:59;3.88;;;1.90;;
38312;SDS011;24114;52.260;6.714;2022-08-01T07:11:36;3.53;;;1.90;;
38312;SDS011;24114;52.260;6.714;2022-08-01T07:14:05;3.45;;;1.90;;
38312;SDS011;24114;52.260;6.714;2022-08-01T07:16:32;2.72;;;1.88;;
38312;SDS011;24114;52.260;6.714;2022-08-01T07:19:00;2.90;;;2.00;;
38312;SDS011;24114;52.260;6.714;2022-08-01T07:21:28;2.42;;;1.45;;
38312;SDS011;24114;52.260;6.714;2022-08-01T07:24:07;3.38;;;1.60;;
38312;SDS011;24114;52.260;6.714;2022-08-01T07:26:39;3.30;;;1.80;;
38312;SDS011;24114;52.260;6.714;2022-08-01T07:29:21;3.43;;;1.80;;
38312;SDS011;24114;52.260;6.714;2022-08-01T07:31:49;4.13;;;1.90;;
38312;SDS011;24114;52.260;6.714;2022-08-01T07:34:17;3.08;;;1.83;;
38312;SDS011;24114;52.260;6.714;2022-08-01T07:36:45;4.53;;;1.70;;
38312;SDS011;24114;52.260;6.714;2022-08-01T07:39:13;4.28;;;1.80;;
38312;SDS011;24114;52.260;6.714;2022-08-01T07:41:41;3.53;;;1.70;;
38312;SDS011;24114;52.260;6.714;2022-08-01T07:44:30;3.25;;;1.73;;
38312;SDS011;24114;52.260;6.714;2022-08-01T07:46:58;3.58;;;1.63;;
38312;SDS011;24114;52.260;6.714;2022-08-01T07:49:25;3.60;;;1.80;;
38312;SDS011;24114;52.260;6.714;2022-08-01T07:51:53;2.65;;;1.52;;
38312;SDS011;24114;52.260;6.714;2022-08-01T07:54:29;4.03;;;1.90;;
38312;SDS011;24114;52.260;6.714;2022-08-01T07:56:59;3.00;;;1.80;;
38312;SDS011;24114;52.260;6.714;2022-08-01T07:59:27;3.53;;;2.05;;
38312;SDS011;24114;52.260;6.714;2022-08-01T08:01:56;2.83;;;2.00;;
38312;SDS011;24114;52.260;6.714;2022-08-01T08:04:24;3.22;;;2.08;;
38312;SDS011;24114;52.260;6.714;2022-08-01T08:06:52;4.70;;;2.05;;
38312;SDS011;24114;52.260;6.714;2022-08-01T08:09:20;4.47;;;2.43;;
38312;SDS011;24114;52.260;6.714;2022-08-01T08:11:49;4.65;;;2.40;;
38312;SDS011;24114;52.260;6.714;2022-08-01T08:14:17;4.38;;;2.40;;
38312;SDS011;24114;52.260;6.714;2022-08-01T08:16:45;4.25;;;2.70;;
38312;SDS011;24114;52.260;6.714;2022-08-01T08:19:14;4.60;;;2.28;;
38312;SDS011;24114;52.260;6.714;2022-08-01T08:21:42;5.90;;;2.33;;
38312;SDS011;24114;52.260;6.714;2022-08-01T08:24:10;4.57;;;2.28;;
38312;SDS011;24114;52.260;6.714;2022-08-01T08:26:52;6.05;;;2.38;;
38312;SDS011;24114;52.260;6.714;2022-08-01T08:29:21;5.07;;;2.45;;
38312;SDS011;24114;52.260;6.714;2022-08-01T08:31:49;7.00;;;2.47;;
38312;SDS011;24114;52.260;6.714;2022-08-01T08:34:19;6.67;;;2.90;;
38312;SDS011;24114;52.260;6.714;2022-08-01T08:36:47;7.18;;;2.80;;
38312;SDS011;24114;52.260;6.714;2022-08-01T08:39:16;5.25;;;2.80;;
38312;SDS011;24114;52.260;6.714;2022-08-01T08:41:45;5.63;;;2.78;;
38312;SDS011;24114;52.260;6.714;2022-08-01T08:44:15;6.13;;;2.72;;
38312;SDS011;24114;52.260;6.714;2022-08-01T08:46:44;5.43;;;2.65;;
38312;SDS011;24114;52.260;6.714;2022-08-01T08:49:15;7.47;;;2.95;;
38312;SDS011;24114;52.260;6.714;2022-08-01T08:51:47;6.90;;;3.10;;
38312;SDS011;24114;52.260;6.714;2022-08-01T08:54:16;11.40;;;3.40;;
38312;SDS011;24114;52.260;6.714;2022-08-01T08:56:47;6.30;;;2.43;;
38312;SDS011;24114;52.260;6.714;2022-08-01T08:59:15;6.82;;;2.70;;
38312;SDS011;24114;52.260;6.714;2022-08-01T09:01:42;6.13;;;2.58;;
38312;SDS011;24114;52.260;6.714;2022-08-01T09:04:10;7.10;;;2.47;;
38312;SDS011;24114;52.260;6.714;2022-08-01T09:06:38;5.75;;;2.75;;
38312;SDS011;24114;52.260;6.714;2022-08-01T09:09:08;5.95;;;2.58;;
38312;SDS011;24114;52.260;6.714;2022-08-01T09:11:36;4.95;;;1.95;;
38312;SDS011;24114;52.260;6.714;2022-08-01T09:14:05;7.75;;;1.90;;
38312;SDS011;24114;52.260;6.714;2022-08-01T09:16:35;4.55;;;1.42;;
38312;SDS011;24114;52.260;6.714;2022-08-01T09:19:08;4.80;;;1.63;;
38312;SDS011;24114;52.260;6.714;2022-08-01T09:21:56;3.35;;;1.05;;
38312;SDS011;24114;52.260;6.714;2022-08-01T09:24:27;4.07;;;1.10;;
38312;SDS011;24114;52.260;6.714;2022-08-01T09:26:56;3.88;;;1.27;;
38312;SDS011;24114;52.260;6.714;2022-08-01T09:29:25;5.13;;;1.30;;
38312;SDS011;24114;52.260;6.714;2022-08-01T09:32:04;6.18;;;1.65;;
38312;SDS011;24114;52.260;6.714;2022-08-01T09:34:39;5.37;;;1.93;;
38312;SDS011;24114;52.260;6.714;2022-08-01T09:37:07;6.43;;;1.63;;
38312;SDS011;24114;52.260;6.714;2022-08-01T09:39:37;6.33;;;1.90;;
38312;SDS011;24114;52.260;6.714;2022-08-01T09:42:18;6.35;;;1.80;;
38312;SDS011;24114;52.260;6.714;2022-08-01T09:44:54;5.23;;;1.10;;
38312;SDS011;24114;52.260;6.714;2022-08-01T09:47:23;4.77;;;1.20;;
38312;SDS011;24114;52.260;6.714;2022-08-01T09:50:05;6.65;;;1.40;;
38312;SDS011;24114;52.260;6.714;2022-08-01T09:52:36;5.35;;;1.10;;
38312;SDS011;24114;52.260;6.714;2022-08-01T09:55:08;5.47;;;1.63;;
38312;SDS011;24114;52.260;6.714;2022-08-01T09:57:38;6.32;;;1.25;;
38312;SDS011;24114;52.260;6.714;2022-08-01T10:00:06;6.20;;;1.50;;
38312;SDS011;24114;52.260;6.714;2022-08-01T10:03:18;5.80;;;1.42;;
38312;SDS011;24114;52.260;6.714;2022-08-01T10:05:47;4.32;;;1.15;;
38312;SDS011;24114;52.260;6.714;2022-08-01T10:08:15;4.30;;;1.05;;
38312;SDS011;24114;52.260;6.714;2022-08-01T10:13:37;6.53;;;1.30;;
38312;SDS011;24114;52.260;6.714;2022-08-01T10:16:05;5.38;;;1.63;;
38312;SDS011;24114;52.260;6.714;2022-08-01T10:18:34;7.28;;;1.73;;
38312;SDS011;24114;52.260;6.714;2022-08-01T10:21:03;6.32;;;1.40;;
38312;SDS011;24114;52.260;6.714;2022-08-01T10:23:36;5.50;;;1.60;;
38312;SDS011;24114;52.260;6.714;2022-08-01T10:26:08;6.22;;;1.42;;
38312;SDS011;24114;52.260;6.714;2022-08-01T10:28:38;4.90;;;1.45;;
38312;SDS011;24114;52.260;6.714;2022-08-01T10:31:06;5.43;;;1.33;;
38312;SDS011;24114;52.260;6.714;2022-08-01T10:33:38;5.65;;;1.05;;
38312;SDS011;24114;52.260;6.714;2022-08-01T10:36:17;6.55;;;1.40;;
38312;SDS011;24114;52.260;6.714;2022-08-01T10:38:48;4.60;;;1.10;;
38312;SDS011;24114;52.260;6.714;2022-08-01T10:41:18;7.90;;;1.38;;
38312;SDS011;24114;52.260;6.714;2022-08-01T10:43:47;6.07;;;1.10;;
38312;SDS011;24114;52.260;6.714;2022-08-01T10:46:14;5.55;;;1.10;;
38312;SDS011;24114;52.260;6.714;2022-08-01T10:48:44;8.05;;;1.30;;
38312;SDS011;24114;52.260;6.714;2022-08-01T10:51:17;5.47;;;1.37;;
38312;SDS011;24114;52.260;6.714;2022-08-01T10:53:46;7.30;;;1.38;;
38312;SDS011;24114;52.260;6.714;2022-08-01T10:56:15;6.82;;;1.45;;
38312;SDS011;24114;52.260;6.714;2022-08-01T10:58:46;3.83;;;0.93;;
38312;SDS011;24114;52.260;6.714;2022-08-01T11:01:19;5.78;;;1.00;;
38312;SDS011;24114;52.260;6.714;2022-08-01T11:03:58;4.38;;;0.90;;
38312;SDS011;24114;52.260;6.714;2022-08-01T11:06:41;4.43;;;0.82;;
38312;SDS011;24114;52.260;6.714;2022-08-01T11:09:21;4.22;;;1.00;;
38312;SDS011;24114;52.260;6.714;2022-08-01T11:12:03;5.68;;;0.90;;
38312;SDS011;24114;52.260;6.714;2022-08-01T11:17:41;3.58;;;0.98;;
38312;SDS011;24114;52.260;6.714;2022-08-01T11:20:14;4.73;;;0.90;;
38312;SDS011;24114;52.260;6.714;2022-08-01T11:28:39;4.63;;;0.90;;
38312;SDS011;24114;52.260;6.714;2022-08-01T11:31:28;3.95;;;0.70;;
38312;SDS011;24114;52.260;6.714;2022-08-01T11:34:03;4.55;;;1.00;;
38312;SDS011;24114;52.260;6.714;2022-08-01T11:36:31;5.68;;;1.30;;
38312;SDS011;24114;52.260;6.714;2022-08-01T11:39:19;4.27;;;0.60;;
38312;SDS011;24114;52.260;6.714;2022-08-01T11:41:47;4.72;;;1.02;;
38312;SDS011;24114;52.260;6.714;2022-08-01T11:44:16;5.03;;;1.10;;
38312;SDS011;24114;52.260;6.714;2022-08-01T11:46:49;4.38;;;1.10;;
38312;SDS011;24114;52.260;6.714;2022-08-01T11:49:46;4.47;;;0.85;;
38312;SDS011;24114;52.260;6.714;2022-08-01T11:52:17;4.53;;;1.27;;
38312;SDS011;24114;52.260;6.714;2022-08-01T11:54:46;3.80;;;1.00;;
38312;SDS011;24114;52.260;6.714;2022-08-01T11:57:17;3.95;;;0.95;;
38312;SDS011;24114;52.260;6.714;2022-08-01T11:59:49;4.68;;;1.30;;
38312;SDS011;24114;52.260;6.714;2022-08-01T12:02:30;3.35;;;0.70;;
38312;SDS011;24114;52.260;6.714;2022-08-01T12:05:02;3.95;;;0.82;;
38312;SDS011;24114;52.260;6.714;2022-08-01T12:07:34;4.80;;;0.98;;
38312;SDS011;24114;52.260;6.714;2022-08-01T12:10:03;4.53;;;0.97;;
38312;SDS011;24114;52.260;6.714;2022-08-01T12:12:32;7.55;;;1.52;;
38312;SDS011;24114;52.260;6.714;2022-08-01T12:15:44;4.20;;;1.05;;
38312;SDS011;24114;52.260;6.714;2022-08-01T12:18:12;3.97;;;0.70;;
38312;SDS011;24114;52.260;6.714;2022-08-01T12:20:41;4.50;;;0.90;;
38312;SDS011;24114;52.260;6.714;2022-08-01T12:23:22;4.82;;;0.70;;
38312;SDS011;24114;52.260;6.714;2022-08-01T12:25:50;5.53;;;1.03;;
38312;SDS011;24114;52.260;6.714;2022-08-01T12:28:19;5.45;;;1.00;;
38312;SDS011;24114;52.260;6.714;2022-08-01T12:30:48;5.93;;;0.95;;
38312;SDS011;24114;52.260;6.714;2022-08-01T12:33:17;3.80;;;1.13;;
38312;SDS011;24114;52.260;6.714;2022-08-01T12:35:46;4.35;;;1.10;;
38312;SDS011;24114;52.260;6.714;2022-08-01T12:38:15;4.10;;;0.88;;
38312;SDS011;24114;52.260;6.714;2022-08-01T12:40:45;4.13;;;0.60;;
38312;SDS011;24114;52.260;6.714;2022-08-01T12:43:19;5.18;;;1.20;;
38312;SDS011;24114;52.260;6.714;2022-08-01T12:45:55;4.60;;;1.10;;
38312;SDS011;24114;52.260;6.714;2022-08-01T12:48:26;3.22;;;0.70;;
38312;SDS011;24114;52.260;6.714;2022-08-01T12:50:54;3.70;;;0.80;;
38312;SDS011;24114;52.260;6.714;2022-08-01T12:53:26;3.13;;;0.70;;
38312;SDS011;24114;52.260;6.714;2022-08-01T12:56:06;4.68;;;0.75;;
38312;SDS011;24114;52.260;6.714;2022-08-01T12:58:35;4.15;;;0.70;;
38312;SDS011;24114;52.260;6.714;2022-08-01T13:01:05;4.63;;;0.70;;
38312;SDS011;24114;52.260;6.714;2022-08-01T13:03:34;4.38;;;0.60;;
38312;SDS011;24114;52.260;6.714;2022-08-01T13:06:09;4.60;;;0.52;;
38312;SDS011;24114;52.260;6.714;2022-08-01T13:08:38;4.28;;;0.90;;
38312;SDS011;24114;52.260;6.714;2022-08-01T13:11:07;4.07;;;0.90;;
38312;SDS011;24114;52.260;6.714;2022-08-01T13:13:39;3.42;;;0.60;;
38312;SDS011;24114;52.260;6.714;2022-08-01T13:16:09;3.73;;;0.47;;
38312;SDS011;24114;52.260;6.714;2022-08-01T13:18:58;3.35;;;0.60;;
38312;SDS011;24114;52.260;6.714;2022-08-01T13:21:26;2.60;;;0.60;;
38312;SDS011;24114;52.260;6.714;2022-08-01T13:24:14;3.35;;;0.70;;
38312;SDS011;24114;52.260;6.714;2022-08-01T13:26:43;3.17;;;0.47;;
38312;SDS011;24114;52.260;6.714;2022-08-01T13:29:11;4.88;;;0.60;;
38312;SDS011;24114;52.260;6.714;2022-08-01T13:31:41;3.17;;;0.40;;
38312;SDS011;24114;52.260;6.714;2022-08-01T13:34:10;4.50;;;0.80;;
38312;SDS011;24114;52.260;6.714;2022-08-01T13:36:38;5.18;;;0.80;;
38312;SDS011;24114;52.260;6.714;2022-08-01T13:39:14;5.53;;;0.57;;
38312;SDS011;24114;52.260;6.714;2022-08-01T13:41:59;4.05;;;0.65;;
38312;SDS011;24114;52.260;6.714;2022-08-01T13:44:27;3.42;;;0.65;;
38312;SDS011;24114;52.260;6.714;2022-08-01T13:46:56;3.97;;;0.80;;
38312;SDS011;24114;52.260;6.714;2022-08-01T13:49:24;4.17;;;0.70;;
38312;SDS011;24114;52.260;6.714;2022-08-01T13:52:03;3.17;;;0.60;;
38312;SDS011;24114;52.260;6.714;2022-08-01T13:54:33;3.70;;;0.90;;
38312;SDS011;24114;52.260;6.714;2022-08-01T13:57:00;4.80;;;0.60;;
38312;SDS011;24114;52.260;6.714;2022-08-01T13:59:28;2.78;;;0.50;;
38312;SDS011;24114;52.260;6.714;2022-08-01T14:01:57;3.80;;;1.00;;
38312;SDS011;24114;52.260;6.714;2022-08-01T14:04:25;2.37;;;0.60;;
38312;SDS011;24114;52.260;6.714;2022-08-01T14:06:52;3.33;;;0.50;;
38312;SDS011;24114;52.260;6.714;2022-08-01T14:09:20;2.22;;;0.60;;
38312;SDS011;24114;52.260;6.714;2022-08-01T14:11:50;3.58;;;0.70;;
38312;SDS011;24114;52.260;6.714;2022-08-01T14:14:18;3.92;;;0.90;;
38312;SDS011;24114;52.260;6.714;2022-08-01T14:16:46;3.80;;;0.65;;
38312;SDS011;24114;52.260;6.714;2022-08-01T14:21:11;4.97;;;0.73;;
38312;SDS011;24114;52.260;6.714;2022-08-01T14:23:40;4.63;;;0.60;;
38312;SDS011;24114;52.260;6.714;2022-08-01T14:26:09;4.00;;;0.80;;
38312;SDS011;24114;52.260;6.714;2022-08-01T14:28:37;4.72;;;0.75;;
38312;SDS011;24114;52.260;6.714;2022-08-01T14:31:05;3.40;;;0.55;;
38312;SDS011;24114;52.260;6.714;2022-08-01T14:33:33;3.47;;;0.80;;
38312;SDS011;24114;52.260;6.714;2022-08-01T14:36:01;2.95;;;0.50;;
38312;SDS011;24114;52.260;6.714;2022-08-01T14:38:51;2.97;;;0.77;;
38312;SDS011;24114;52.260;6.714;2022-08-01T14:41:25;3.45;;;0.77;;
38312;SDS011;24114;52.260;6.714;2022-08-01T14:43:55;2.03;;;0.50;;
38312;SDS011;24114;52.260;6.714;2022-08-01T14:46:23;3.97;;;0.68;;
38312;SDS011;24114;52.260;6.714;2022-08-01T14:48:51;4.80;;;0.80;;
38312;SDS011;24114;52.260;6.714;2022-08-01T14:51:19;3.22;;;0.80;;
38312;SDS011;24114;52.260;6.714;2022-08-01T14:53:47;3.17;;;0.50;;
38312;SDS011;24114;52.260;6.714;2022-08-01T14:56:17;4.47;;;0.73;;
38312;SDS011;24114;52.260;6.714;2022-08-01T14:58:45;4.47;;;1.00;;
38312;SDS011;24114;52.260;6.714;2022-08-01T15:01:13;5.90;;;0.80;;
38312;SDS011;24114;52.260;6.714;2022-08-01T15:03:42;2.40;;;0.50;;
38312;SDS011;24114;52.260;6.714;2022-08-01T15:06:10;3.63;;;0.70;;
38312;SDS011;24114;52.260;6.714;2022-08-01T15:08:38;3.78;;;0.57;;
38312;SDS011;24114;52.260;6.714;2022-08-01T15:11:09;3.38;;;0.50;;
38312;SDS011;24114;52.260;6.714;2022-08-01T15:13:38;2.70;;;0.60;;
38312;SDS011;24114;52.260;6.714;2022-08-01T15:16:08;3.92;;;0.52;;
38312;SDS011;24114;52.260;6.714;2022-08-01T15:18:37;3.90;;;0.70;;
38312;SDS011;24114;52.260;6.714;2022-08-01T15:21:05;5.37;;;0.63;;
38312;SDS011;24114;52.260;6.714;2022-08-01T15:23:39;3.90;;;0.75;;